Terminal Aerodrome Forecast
Issued by NWS

Home | Current Version | Previous Version | Text Only | Print | Product List | Glossary On
Versions: 1 2 3 4 5 6 7 8 9 10 11 12 13 14 15 16 17 18 19
000
FTUS44 KBMX 300520
TAFTCL
TAF
KTCL 300520Z 3006/3106 00000KT P6SM BKN200
     FM301200 20003KT P6SM VCSH BKN010 BKN050
     FM301500 22007KT P6SM BKN035 BKN080
     FM301700 21006KT P6SM BKN040 BKN250 PROB30 3019/3024 P6SM -TSRA
      BKN035CB BKN100=

USA.gov is the U.S. government's official web portal to all federal, state and local government web resources and services.